Time;durP1;ratioP1;P1;durP2;ratioP2;P2;SDS_P1;SDS_P2;PMS_P1;PMS_P2;Temp;Humidity;BMP_temperature;BMP_pressure;BME280_temperature;BME280_humidity;BME280_pressure;Samples;Min_cycle;Max_cycle;Signal;HPM_P1;HPM_P2
2021/11/15 00:01:43;;;;;;;0.90;0.90;;;;;;;;;;4988403;28;20688;-69
2021/11/15 00:04:13;;;;;;;0.00;0.00;;;;;;;;;;4988922;28;20198;-71
2021/11/15 00:06:40;;;;;;;0.00;0.00;;;;;;;;;;4986109;28;20224;-71
2021/11/15 00:09:08;;;;;;;0.00;0.00;;;;;;;;;;4986588;28;20220;-70
2021/11/15 00:11:35;;;;;;;0.00;0.00;;;;;;;;;;4989049;28;20198;-69
2021/11/15 00:14:03;;;;;;;0.27;0.27;;;;;;;;;;4985480;28;20228;-69
2021/11/15 00:16:31;;;;;;;0.93;0.57;;;;;;;;;;4986598;28;20206;-70
2021/11/15 00:18:58;;;;;;;0.47;0.47;;;;;;;;;;4984026;28;20247;-69
2021/11/15 00:21:27;;;;;;;1.20;0.57;;;;;;;;;;4979447;28;20201;-69
2021/11/15 00:23:55;;;;;;;0.47;0.40;;;;;;;;;;4986135;28;20212;-70
2021/11/15 00:26:22;;;;;;;0.00;0.00;;;;;;;;;;4988599;28;20602;-67
2021/11/15 00:28:50;;;;;;;0.00;0.00;;;;;;;;;;4986100;28;20214;-67
2021/11/15 00:31:19;;;;;;;0.57;0.53;;;;;;;;;;4986283;28;20225;-70
2021/11/15 00:33:46;;;;;;;0.40;0.40;;;;;;;;;;4987164;28;20296;-70
2021/11/15 00:36:14;;;;;;;0.67;0.50;;;;;;;;;;4985308;28;20264;-72
2021/11/15 00:38:43;;;;;;;0.97;0.97;;;;;;;;;;4986668;28;20202;-71
2021/11/15 00:41:10;;;;;;;3.27;2.43;;;;;;;;;;4987242;28;20197;-70
2021/11/15 00:43:38;;;;;;;0.40;0.30;;;;;;;;;;4987629;28;20236;-70
2021/11/15 00:46:05;;;;;;;1.50;0.57;;;;;;;;;;4984992;28;20229;-70
2021/11/15 00:48:33;;;;;;;0.00;0.00;;;;;;;;;;4987690;28;20197;-70
2021/11/15 00:51:00;;;;;;;0.43;0.43;;;;;;;;;;4988557;28;20576;-71
2021/11/15 00:53:28;;;;;;;3.73;2.83;;;;;;;;;;4985803;28;20210;-69
2021/11/15 00:55:57;;;;;;;1.00;1.00;;;;;;;;;;4986456;28;20216;-69
2021/11/15 00:58:24;;;;;;;1.50;0.53;;;;;;;;;;4986605;28;20205;-69
2021/11/15 01:00:52;;;;;;;0.30;0.30;;;;;;;;;;4985644;28;20217;-68
2021/11/15 01:03:19;;;;;;;0.50;0.50;;;;;;;;;;4986379;28;20204;-70
2021/11/15 01:05:48;;;;;;;1.70;1.60;;;;;;;;;;4981510;28;20238;-70
2021/11/15 01:08:17;;;;;;;0.40;0.40;;;;;;;;;;4975245;28;20213;-69
2021/11/15 01:10:44;;;;;;;0.70;0.70;;;;;;;;;;4977439;28;20209;-70
2021/11/15 01:13:13;;;;;;;0.93;0.80;;;;;;;;;;4974312;28;20209;-70
2021/11/15 01:15:41;;;;;;;0.37;0.37;;;;;;;;;;4978199;28;20248;-70
2021/11/15 01:18:09;;;;;;;0.30;0.30;;;;;;;;;;4979467;28;20210;-68
2021/11/15 01:20:36;;;;;;;0.63;0.63;;;;;;;;;;4977442;28;20209;-70
2021/11/15 01:23:04;;;;;;;0.63;0.63;;;;;;;;;;4978081;28;20217;-69
2021/11/15 01:25:32;;;;;;;0.00;0.00;;;;;;;;;;4985137;28;20690;-69
2021/11/15 01:27:59;;;;;;;0.20;0.20;;;;;;;;;;4987416;28;20217;-67
2021/11/15 01:30:28;;;;;;;1.90;1.67;;;;;;;;;;4983963;28;20205;-70
2021/11/15 01:32:56;;;;;;;0.37;0.10;;;;;;;;;;4986799;28;20214;-70
2021/11/15 01:35:24;;;;;;;0.17;0.17;;;;;;;;;;4987072;28;20198;-69
2021/11/15 01:37:51;;;;;;;0.93;0.93;;;;;;;;;;4978302;28;20703;-69
2021/11/15 01:40:20;;;;;;;0.13;0.13;;;;;;;;;;4979283;28;20555;-69
2021/11/15 01:42:48;;;;;;;0.00;0.00;;;;;;;;;;4979349;28;20252;-70
2021/11/15 01:45:23;;;;;;;0.33;0.33;;;;;;;;;;4979302;28;20205;-69
2021/11/15 01:47:51;;;;;;;0.30;0.30;;;;;;;;;;4975725;28;20767;-70
2021/11/15 01:50:19;;;;;;;1.30;1.27;;;;;;;;;;4973298;28;20202;-69
2021/11/15 01:52:47;;;;;;;0.00;0.00;;;;;;;;;;4969314;28;20212;-70
2021/11/15 01:55:15;;;;;;;0.00;0.00;;;;;;;;;;4969981;28;20205;-70
2021/11/15 01:57:43;;;;;;;0.00;0.00;;;;;;;;;;4969770;28;20209;-72
2021/11/15 02:00:12;;;;;;;0.00;0.00;;;;;;;;;;4968838;28;20214;-70
2021/11/15 02:02:39;;;;;;;0.00;0.00;;;;;;;;;;4971568;28;20544;-70
2021/11/15 02:05:08;;;;;;;0.00;0.00;;;;;;;;;;4979757;28;20205;-70
2021/11/15 02:07:36;;;;;;;0.00;0.00;;;;;;;;;;4979476;28;20609;-68
2021/11/15 02:10:04;;;;;;;0.20;0.20;;;;;;;;;;4979669;28;20910;-69
2021/11/15 02:12:32;;;;;;;0.03;0.03;;;;;;;;;;4980626;28;20673;-70
2021/11/15 02:14:59;;;;;;;0.00;0.00;;;;;;;;;;4982388;28;20291;-70
2021/11/15 02:17:27;;;;;;;0.00;0.00;;;;;;;;;;4981698;28;20206;-70
2021/11/15 02:19:54;;;;;;;0.10;0.10;;;;;;;;;;4975545;28;20305;-72
2021/11/15 02:22:23;;;;;;;0.00;0.00;;;;;;;;;;4971211;28;20201;-69
2021/11/15 02:24:51;;;;;;;0.00;0.00;;;;;;;;;;4980718;28;20217;-71
2021/11/15 02:27:19;;;;;;;0.00;0.00;;;;;;;;;;4979484;28;20230;-69
2021/11/15 02:29:46;;;;;;;0.00;0.00;;;;;;;;;;4978839;28;20582;-70
2021/11/15 02:32:14;;;;;;;0.00;0.00;;;;;;;;;;4980122;28;20205;-70
2021/11/15 02:34:41;;;;;;;0.00;0.00;;;;;;;;;;4980442;28;20205;-67
2021/11/15 02:37:09;;;;;;;0.00;0.00;;;;;;;;;;4982854;28;20293;-70
2021/11/15 02:39:37;;;;;;;0.00;0.00;;;;;;;;;;4981058;28;20205;-70
2021/11/15 02:42:06;;;;;;;0.27;0.27;;;;;;;;;;4984126;28;20209;-70
2021/11/15 02:44:33;;;;;;;0.00;0.00;;;;;;;;;;4983151;28;20337;-70
2021/11/15 02:47:02;;;;;;;0.30;0.30;;;;;;;;;;4983140;28;20598;-69
2021/11/15 02:49:30;;;;;;;0.10;0.10;;;;;;;;;;4981840;28;20209;-71
2021/11/15 02:51:58;;;;;;;0.17;0.17;;;;;;;;;;4981836;28;20288;-70
2021/11/15 02:54:25;;;;;;;0.00;0.00;;;;;;;;;;4982970;28;20209;-69
2021/11/15 02:56:54;;;;;;;0.00;0.00;;;;;;;;;;4984007;28;20666;-70
2021/11/15 02:59:22;;;;;;;0.00;0.00;;;;;;;;;;4983304;28;20224;-70
2021/11/15 03:01:50;;;;;;;0.00;0.00;;;;;;;;;;4982656;28;20210;-70
2021/11/15 03:04:17;;;;;;;0.00;0.00;;;;;;;;;;4982095;28;20579;-68
2021/11/15 03:06:45;;;;;;;0.00;0.00;;;;;;;;;;4982490;28;20581;-69
2021/11/15 03:09:12;;;;;;;0.00;0.00;;;;;;;;;;4985289;28;20209;-71
2021/11/15 03:11:40;;;;;;;0.00;0.00;;;;;;;;;;4987688;28;20297;-70
2021/11/15 03:14:08;;;;;;;0.00;0.00;;;;;;;;;;4988413;28;20268;-70
2021/11/15 03:16:37;;;;;;;0.00;0.00;;;;;;;;;;4988263;28;20197;-70
2021/11/15 03:19:04;;;;;;;0.00;0.00;;;;;;;;;;4987343;28;20221;-70
2021/11/15 03:21:32;;;;;;;0.10;0.10;;;;;;;;;;4977064;28;20216;-70
2021/11/15 03:23:59;;;;;;;0.00;0.00;;;;;;;;;;4981146;28;20649;-69
2021/11/15 03:26:27;;;;;;;0.20;0.20;;;;;;;;;;4976875;28;20242;-69
2021/11/15 03:28:55;;;;;;;0.00;0.00;;;;;;;;;;4979090;28;20574;-70
2021/11/15 03:31:25;;;;;;;0.00;0.00;;;;;;;;;;4980966;28;20194;-70
2021/11/15 03:33:54;;;;;;;0.00;0.00;;;;;;;;;;4978526;28;20237;-71
2021/11/15 03:36:21;;;;;;;1.03;0.30;;;;;;;;;;4981483;28;20205;-68
2021/11/15 03:38:49;;;;;;;0.00;0.00;;;;;;;;;;4977774;28;20588;-71
2021/11/15 03:41:17;;;;;;;0.57;0.57;;;;;;;;;;4974540;28;20212;-71
2021/11/15 03:43:44;;;;;;;0.13;0.13;;;;;;;;;;4973341;28;20234;-71
2021/11/15 03:46:13;;;;;;;0.20;0.20;;;;;;;;;;4972664;28;20202;-70
2021/11/15 03:48:42;;;;;;;0.20;0.20;;;;;;;;;;4972850;28;20210;-69
2021/11/15 03:51:09;;;;;;;2.20;2.00;;;;;;;;;;4974554;28;20218;-71
2021/11/15 03:53:38;;;;;;;0.00;0.00;;;;;;;;;;4976197;28;20209;-69
2021/11/15 03:56:08;;;;;;;1.57;0.63;;;;;;;;;;4972858;28;20202;-69
2021/11/15 03:58:36;;;;;;;0.87;0.87;;;;;;;;;;4972387;28;20217;-70
2021/11/15 04:01:04;;;;;;;0.30;0.30;;;;;;;;;;4972412;28;20230;-69
2021/11/15 04:03:33;;;;;;;0.53;0.53;;;;;;;;;;4974693;28;20728;-70
2021/11/15 04:06:04;;;;;;;0.00;0.00;;;;;;;;;;4980732;28;20210;-70
2021/11/15 04:08:33;;;;;;;2.30;2.20;;;;;;;;;;4979850;28;20237;-67
2021/11/15 04:11:01;;;;;;;0.03;0.03;;;;;;;;;;4988748;28;20204;-70
2021/11/15 04:13:30;;;;;;;0.00;0.00;;;;;;;;;;4985270;28;20210;-69
2021/11/15 04:15:59;;;;;;;0.00;0.00;;;;;;;;;;4988252;28;20206;-68
2021/11/15 04:18:29;;;;;;;0.00;0.00;;;;;;;;;;4988105;28;20206;-68
2021/11/15 04:20:57;;;;;;;0.00;0.00;;;;;;;;;;4984412;28;20697;-69
2021/11/15 04:23:26;;;;;;;0.00;0.00;;;;;;;;;;4986799;28;20214;-69
2021/11/15 04:25:53;;;;;;;0.00;0.00;;;;;;;;;;4987855;28;20561;-70
2021/11/15 04:28:21;;;;;;;2.00;0.40;;;;;;;;;;4984373;28;20229;-69
2021/11/15 04:30:48;;;;;;;0.20;0.20;;;;;;;;;;4987197;28;20207;-70
2021/11/15 04:33:16;;;;;;;0.00;0.00;;;;;;;;;;4987025;28;20243;-70
2021/11/15 04:35:43;;;;;;;0.73;0.73;;;;;;;;;;4985577;28;20206;-69
2021/11/15 04:38:11;;;;;;;0.30;0.10;;;;;;;;;;4988053;28;20213;-71
2021/11/15 04:40:40;;;;;;;0.00;0.00;;;;;;;;;;4983259;28;20202;-68
2021/11/15 04:43:08;;;;;;;0.67;0.67;;;;;;;;;;4971499;28;20244;-71
2021/11/15 04:45:36;;;;;;;0.30;0.30;;;;;;;;;;4973593;28;20344;-69
2021/11/15 04:48:04;;;;;;;0.00;0.00;;;;;;;;;;4971172;28;20226;-69
2021/11/15 04:50:31;;;;;;;0.00;0.00;;;;;;;;;;4970746;28;20213;-71
2021/11/15 04:52:59;;;;;;;0.00;0.00;;;;;;;;;;4972762;28;20209;-68
2021/11/15 04:55:27;;;;;;;0.00;0.00;;;;;;;;;;4974955;28;20202;-69
2021/11/15 04:57:57;;;;;;;0.00;0.00;;;;;;;;;;4977833;28;20256;-69
2021/11/15 05:00:27;;;;;;;0.13;0.13;;;;;;;;;;4978800;28;20252;-70
2021/11/15 05:02:54;;;;;;;2.70;0.87;;;;;;;;;;4979119;28;20206;-69
2021/11/15 05:05:22;;;;;;;0.77;0.77;;;;;;;;;;4976587;28;20205;-69
2021/11/15 05:07:53;;;;;;;1.30;1.00;;;;;;;;;;4976569;28;20443;-72
2021/11/15 05:10:20;;;;;;;0.43;0.33;;;;;;;;;;4975280;28;20229;-69
2021/11/15 05:12:48;;;;;;;1.37;1.27;;;;;;;;;;4971388;28;20221;-69
2021/11/15 05:15:19;;;;;;;1.13;0.60;;;;;;;;;;4974973;28;20210;-69
2021/11/15 05:17:46;;;;;;;5.27;2.03;;;;;;;;;;4976804;28;20211;-71
2021/11/15 05:20:14;;;;;;;0.60;0.60;;;;;;;;;;4977315;28;20209;-72
2021/11/15 05:22:41;;;;;;;2.30;1.00;;;;;;;;;;4971613;28;20947;-69
2021/11/15 05:25:10;;;;;;;0.23;0.23;;;;;;;;;;4970165;28;20218;-70
2021/11/15 05:27:38;;;;;;;0.67;0.67;;;;;;;;;;4970258;28;20715;-71
2021/11/15 05:30:06;;;;;;;0.77;0.77;;;;;;;;;;4968436;28;20557;-70
2021/11/15 05:32:35;;;;;;;2.57;1.00;;;;;;;;;;4974734;28;20206;-71
2021/11/15 05:35:02;;;;;;;10.03;2.87;;;;;;;;;;4977907;28;20198;-71
2021/11/15 05:37:30;;;;;;;0.37;0.37;;;;;;;;;;4976474;28;20213;-70
2021/11/15 05:39:57;;;;;;;0.30;0.30;;;;;;;;;;4977044;28;20691;-70
2021/11/15 05:42:24;;;;;;;0.00;0.00;;;;;;;;;;4977124;28;20663;-70
2021/11/15 05:44:52;;;;;;;0.73;0.73;;;;;;;;;;4975993;28;20198;-70
2021/11/15 05:47:20;;;;;;;0.00;0.00;;;;;;;;;;4975942;28;20248;-70
2021/11/15 05:49:49;;;;;;;0.47;0.47;;;;;;;;;;4974479;28;20268;-71
2021/11/15 05:52:18;;;;;;;0.20;0.20;;;;;;;;;;4974515;28;20212;-70
2021/11/15 05:54:45;;;;;;;0.00;0.00;;;;;;;;;;4977509;28;20679;-69
2021/11/15 05:57:12;;;;;;;0.67;0.63;;;;;;;;;;4977465;28;20202;-70
2021/11/15 05:59:40;;;;;;;0.33;0.33;;;;;;;;;;4976056;28;20201;-70
2021/11/15 06:02:07;;;;;;;0.60;0.47;;;;;;;;;;4977713;28;20232;-69
2021/11/15 06:04:35;;;;;;;0.17;0.17;;;;;;;;;;4981861;28;20563;-70
2021/11/15 06:07:04;;;;;;;2.43;1.93;;;;;;;;;;4983523;28;20209;-69
2021/11/15 06:09:31;;;;;;;1.47;1.23;;;;;;;;;;4985603;28;20745;-69
2021/11/15 06:11:59;;;;;;;1.07;0.93;;;;;;;;;;4991168;28;20215;-69
2021/11/15 06:14:26;;;;;;;0.10;0.10;;;;;;;;;;4989060;28;20305;-69
2021/11/15 06:16:54;;;;;;;0.20;0.20;;;;;;;;;;4988503;28;20221;-71
2021/11/15 06:19:21;;;;;;;1.53;1.43;;;;;;;;;;4991055;28;20197;-69
2021/11/15 06:21:49;;;;;;;2.23;1.80;;;;;;;;;;4988874;28;20197;-69
2021/11/15 06:24:18;;;;;;;0.00;0.00;;;;;;;;;;4989555;28;20289;-69
2021/11/15 06:26:45;;;;;;;0.37;0.10;;;;;;;;;;4989262;28;20205;-69
2021/11/15 06:29:13;;;;;;;0.17;0.17;;;;;;;;;;4987204;28;20237;-70
2021/11/15 06:31:41;;;;;;;0.50;0.50;;;;;;;;;;4985450;28;20667;-71
2021/11/15 06:34:08;;;;;;;0.30;0.30;;;;;;;;;;4989501;28;20206;-69
2021/11/15 06:36:36;;;;;;;0.13;0.13;;;;;;;;;;4987774;28;20201;-69
2021/11/15 06:39:03;;;;;;;1.97;1.70;;;;;;;;;;4988284;28;20560;-69
2021/11/15 06:41:32;;;;;;;0.70;0.70;;;;;;;;;;4989090;28;20232;-71
2021/11/15 06:44:00;;;;;;;0.23;0.23;;;;;;;;;;4980000;28;20324;-69
2021/11/15 06:46:28;;;;;;;0.00;0.00;;;;;;;;;;4978791;28;20209;-69
2021/11/15 06:48:55;;;;;;;1.57;1.30;;;;;;;;;;4975546;28;20230;-72
2021/11/15 06:51:24;;;;;;;0.00;0.00;;;;;;;;;;4976459;28;20212;-70
2021/11/15 06:53:51;;;;;;;3.30;2.33;;;;;;;;;;4974084;28;20216;-70
2021/11/15 06:56:19;;;;;;;0.00;0.00;;;;;;;;;;4975157;28;20248;-69
2021/11/15 06:58:47;;;;;;;0.00;0.00;;;;;;;;;;4973937;28;20206;-70
2021/11/15 07:01:15;;;;;;;1.90;1.03;;;;;;;;;;4975797;28;20296;-72
2021/11/15 07:03:43;;;;;;;0.77;0.77;;;;;;;;;;4981351;28;20221;-71
2021/11/15 07:06:11;;;;;;;3.50;1.90;;;;;;;;;;4979717;28;20206;-69
2021/11/15 07:08:38;;;;;;;1.73;1.63;;;;;;;;;;4978727;28;20233;-68
2021/11/15 07:11:05;;;;;;;1.40;1.30;;;;;;;;;;4979287;28;20206;-68
2021/11/15 07:13:33;;;;;;;1.60;1.53;;;;;;;;;;4976830;28;20205;-70
2021/11/15 07:16:02;;;;;;;1.83;1.17;;;;;;;;;;4972128;28;20686;-69
2021/11/15 07:18:32;;;;;;;0.10;0.10;;;;;;;;;;4972168;28;20678;-69
2021/11/15 07:20:59;;;;;;;0.10;0.10;;;;;;;;;;4971923;28;20197;-70
2021/11/15 07:23:27;;;;;;;1.57;0.40;;;;;;;;;;4980243;28;20678;-70
2021/11/15 07:25:55;;;;;;;0.00;0.00;;;;;;;;;;4980566;28;20201;-70
2021/11/15 07:28:23;;;;;;;0.00;0.00;;;;;;;;;;4981659;28;20225;-70
2021/11/15 07:30:54;;;;;;;0.00;0.00;;;;;;;;;;4980303;28;20209;-71
2021/11/15 07:33:23;;;;;;;0.67;0.67;;;;;;;;;;4980842;28;20209;-70
2021/11/15 07:35:51;;;;;;;0.50;0.50;;;;;;;;;;4986346;28;20525;-71
2021/11/15 07:38:18;;;;;;;0.20;0.20;;;;;;;;;;4983390;28;20245;-71
2021/11/15 07:40:46;;;;;;;0.00;0.00;;;;;;;;;;4983855;28;20229;-70
2021/11/15 07:43:13;;;;;;;0.00;0.00;;;;;;;;;;4984348;28;20306;-69
2021/11/15 07:45:41;;;;;;;1.27;0.30;;;;;;;;;;4981746;28;20217;-71
2021/11/15 07:48:08;;;;;;;1.90;1.50;;;;;;;;;;4977193;28;20233;-70
2021/11/15 07:50:38;;;;;;;0.93;0.93;;;;;;;;;;4979453;28;20206;-70
2021/11/15 07:53:06;;;;;;;2.10;2.00;;;;;;;;;;4984660;28;20209;-68
2021/11/15 07:55:33;;;;;;;0.00;0.00;;;;;;;;;;4986461;28;20206;-68
2021/11/15 07:58:01;;;;;;;0.67;0.67;;;;;;;;;;4989881;28;20241;-68
2021/11/15 08:00:28;;;;;;;0.10;0.10;;;;;;;;;;4988092;28;20575;-68
2021/11/15 08:02:56;;;;;;;1.40;1.17;;;;;;;;;;4986621;28;20207;-69
2021/11/15 08:05:24;;;;;;;0.77;0.77;;;;;;;;;;4987915;28;20217;-69
2021/11/15 08:07:53;;;;;;;5.53;1.70;;;;;;;;;;4987166;28;20229;-69
2021/11/15 08:10:22;;;;;;;0.30;0.30;;;;;;;;;;4992021;28;22234;-69
2021/11/15 08:12:51;;;;;;;0.43;0.43;;;;;;;;;;4987699;28;20210;-69
2021/11/15 08:15:19;;;;;;;0.97;0.97;;;;;;;;;;4995108;28;20207;-68
2021/11/15 08:17:47;;;;;;;0.00;0.00;;;;;;;;;;4991539;28;20300;-67
2021/11/15 08:20:16;;;;;;;1.33;0.63;;;;;;;;;;4983166;28;20210;-70
2021/11/15 08:22:45;;;;;;;0.00;0.00;;;;;;;;;;4979900;28;20218;-67
2021/11/15 08:25:30;;;;;;;0.67;0.67;;;;;;;;;;4987845;28;20206;-68
2021/11/15 08:27:58;;;;;;;1.53;1.30;;;;;;;;;;4980558;28;20245;-73
2021/11/15 08:30:26;;;;;;;0.00;0.00;;;;;;;;;;4977081;28;20206;-72
2021/11/15 08:32:54;;;;;;;0.27;0.27;;;;;;;;;;4983047;28;20301;-72
2021/11/15 08:35:23;;;;;;;0.23;0.23;;;;;;;;;;4985941;28;20209;-72
2021/11/15 08:38:10;;;;;;;0.00;0.00;;;;;;;;;;4983484;28;20217;-70
2021/11/15 08:40:39;;;;;;;0.57;0.40;;;;;;;;;;4985722;28;20212;-69
2021/11/15 08:43:07;;;;;;;0.20;0.20;;;;;;;;;;4984206;28;20296;-70
2021/11/15 08:45:35;;;;;;;0.47;0.47;;;;;;;;;;4981580;28;20209;-72
2021/11/15 08:48:03;;;;;;;0.00;0.00;;;;;;;;;;4983937;28;20236;-73
2021/11/15 08:50:30;;;;;;;0.93;0.93;;;;;;;;;;4984379;28;20209;-74
2021/11/15 08:52:58;;;;;;;0.00;0.00;;;;;;;;;;4983568;28;20205;-70
2021/11/15 08:55:26;;;;;;;0.23;0.23;;;;;;;;;;4981298;28;20213;-71
2021/11/15 08:57:55;;;;;;;1.77;0.57;;;;;;;;;;4981179;28;20221;-71
2021/11/15 09:00:24;;;;;;;0.93;0.93;;;;;;;;;;4984950;28;20211;-70
2021/11/15 09:02:51;;;;;;;0.00;0.00;;;;;;;;;;4984378;28;21220;-70
2021/11/15 09:05:19;;;;;;;0.20;0.20;;;;;;;;;;4981751;28;20248;-69
2021/11/15 09:07:47;;;;;;;0.00;0.00;;;;;;;;;;4979638;28;20214;-72
2021/11/15 09:10:15;;;;;;;1.53;1.43;;;;;;;;;;4982618;28;20220;-74
2021/11/15 09:12:44;;;;;;;0.40;0.40;;;;;;;;;;4982716;28;20586;-70
2021/11/15 09:15:15;;;;;;;0.57;0.57;;;;;;;;;;4977663;28;20301;-70
2021/11/15 09:17:43;;;;;;;0.27;0.27;;;;;;;;;;4981790;28;20800;-70
2021/11/15 09:20:12;;;;;;;0.17;0.17;;;;;;;;;;4978500;28;20213;-72
2021/11/15 09:22:40;;;;;;;0.73;0.67;;;;;;;;;;4982795;28;20958;-71
2021/11/15 09:25:09;;;;;;;0.50;0.50;;;;;;;;;;4989561;28;20222;-72
2021/11/15 09:27:36;;;;;;;5.43;0.87;;;;;;;;;;4989229;28;20233;-70
2021/11/15 09:30:05;;;;;;;0.43;0.43;;;;;;;;;;4984896;28;20229;-69
2021/11/15 09:32:34;;;;;;;0.73;0.60;;;;;;;;;;4984765;28;20202;-70
2021/11/15 09:35:01;;;;;;;2.07;1.07;;;;;;;;;;4990091;28;20202;-70
2021/11/15 09:37:29;;;;;;;0.83;0.83;;;;;;;;;;4984121;28;20244;-69
2021/11/15 09:39:56;;;;;;;0.20;0.20;;;;;;;;;;4987983;28;20213;-71
2021/11/15 09:42:24;;;;;;;0.00;0.00;;;;;;;;;;4991298;28;20564;-70
2021/11/15 09:44:51;;;;;;;7.43;1.30;;;;;;;;;;4991260;28;20205;-70
2021/11/15 09:47:19;;;;;;;0.00;0.00;;;;;;;;;;4986843;28;20206;-70
2021/11/15 09:49:48;;;;;;;1.83;1.70;;;;;;;;;;4988546;28;20233;-73
2021/11/15 09:52:16;;;;;;;0.00;0.00;;;;;;;;;;4986891;28;20217;-70
2021/11/15 09:54:45;;;;;;;0.67;0.67;;;;;;;;;;4988523;28;20205;-69
2021/11/15 09:57:15;;;;;;;0.60;0.60;;;;;;;;;;4987190;28;20261;-72
2021/11/15 09:59:44;;;;;;;0.20;0.20;;;;;;;;;;4984701;28;20213;-78
2021/11/15 10:02:12;;;;;;;0.57;0.57;;;;;;;;;;4983269;28;20198;-69
2021/11/15 10:04:39;;;;;;;0.00;0.00;;;;;;;;;;4980113;28;20206;-73
2021/11/15 10:07:08;;;;;;;1.50;1.40;;;;;;;;;;4977085;28;20202;-70
2021/11/15 10:09:38;;;;;;;1.30;1.17;;;;;;;;;;4982726;28;20244;-74
2021/11/15 10:12:09;;;;;;;3.50;0.90;;;;;;;;;;4979488;28;20221;-72
2021/11/15 10:14:37;;;;;;;1.20;1.17;;;;;;;;;;4982241;28;20202;-69
2021/11/15 10:17:04;;;;;;;0.87;0.87;;;;;;;;;;4981103;28;20210;-70
2021/11/15 10:19:34;;;;;;;1.30;1.27;;;;;;;;;;4983795;28;20224;-70
2021/11/15 10:22:04;;;;;;;0.97;0.80;;;;;;;;;;4980530;28;20228;-71
2021/11/15 10:24:35;;;;;;;0.67;0.67;;;;;;;;;;4980594;28;20218;-73
2021/11/15 10:27:05;;;;;;;0.83;0.77;;;;;;;;;;4984162;28;20201;-69
2021/11/15 10:29:35;;;;;;;0.00;0.00;;;;;;;;;;4981902;28;20311;-71
2021/11/15 10:32:04;;;;;;;0.00;0.00;;;;;;;;;;4979118;28;20212;-70
2021/11/15 10:34:32;;;;;;;0.00;0.00;;;;;;;;;;4983117;28;20228;-71
2021/11/15 10:37:02;;;;;;;1.37;1.20;;;;;;;;;;4980821;28;20265;-71
2021/11/15 10:39:39;;;;;;;2.23;1.40;;;;;;;;;;4982658;28;21088;-71
2021/11/15 10:42:11;;;;;;;0.57;0.57;;;;;;;;;;4975218;28;20213;-71
2021/11/15 10:44:43;;;;;;;0.30;0.30;;;;;;;;;;4977440;28;20222;-69
2021/11/15 10:47:11;;;;;;;0.50;0.17;;;;;;;;;;4982429;28;20293;-71
2021/11/15 10:49:38;;;;;;;0.00;0.00;;;;;;;;;;4979536;28;20594;-68
2021/11/15 10:52:11;;;;;;;0.30;0.30;;;;;;;;;;4985669;28;20202;-68
2021/11/15 10:54:58;;;;;;;0.00;0.00;;;;;;;;;;4985083;28;21385;-70
2021/11/15 10:57:31;;;;;;;0.10;0.10;;;;;;;;;;4981906;28;20209;-70
2021/11/15 11:00:12;;;;;;;0.00;0.00;;;;;;;;;;4985195;28;20209;-73
2021/11/15 11:02:41;;;;;;;3.60;3.30;;;;;;;;;;4987326;28;20209;-72
2021/11/15 11:05:09;;;;;;;1.60;1.40;;;;;;;;;;4987016;28;20212;-74
2021/11/15 11:07:37;;;;;;;2.50;1.70;;;;;;;;;;4985010;28;20221;-71
2021/11/15 11:10:08;;;;;;;4.43;4.13;;;;;;;;;;4986331;28;20537;-69
2021/11/15 11:12:39;;;;;;;0.17;0.17;;;;;;;;;;4986432;28;20198;-71
2021/11/15 11:15:27;;;;;;;1.40;0.77;;;;;;;;;;4985698;28;20238;-68
2021/11/15 11:17:58;;;;;;;0.00;0.00;;;;;;;;;;4990867;28;20316;-72
2021/11/15 11:20:32;;;;;;;0.90;0.73;;;;;;;;;;4989394;28;20217;-67
2021/11/15 11:23:25;;;;;;;5.60;2.47;;;;;;;;;;4986617;28;20213;-70
2021/11/15 11:25:54;;;;;;;2.53;2.33;;;;;;;;;;4990447;28;20300;-70
2021/11/15 11:28:29;;;;;;;0.00;0.00;;;;;;;;;;4989535;28;20210;-67
2021/11/15 11:30:57;;;;;;;0.00;0.00;;;;;;;;;;4987594;28;20298;-69
2021/11/15 11:33:27;;;;;;;1.63;1.33;;;;;;;;;;4991485;28;20201;-69
2021/11/15 11:35:55;;;;;;;5.27;2.83;;;;;;;;;;4987446;28;20217;-71
2021/11/15 11:38:23;;;;;;;0.10;0.10;;;;;;;;;;4995415;28;20222;-67
2021/11/15 11:40:50;;;;;;;6.50;3.57;;;;;;;;;;4992797;28;21023;-69
2021/11/15 11:43:19;;;;;;;2.00;1.90;;;;;;;;;;4997332;28;20253;-67
2021/11/15 11:45:47;;;;;;;0.83;0.83;;;;;;;;;;4990717;28;20202;-68
2021/11/15 11:48:15;;;;;;;1.67;1.57;;;;;;;;;;4992433;28;20211;-72
2021/11/15 11:50:44;;;;;;;0.00;0.00;;;;;;;;;;4989451;28;20754;-70
2021/11/15 11:53:12;;;;;;;1.27;1.03;;;;;;;;;;4990588;28;20205;-68
2021/11/15 11:55:42;;;;;;;2.43;1.60;;;;;;;;;;4986324;28;20913;-71
2021/11/15 11:58:24;;;;;;;0.40;0.40;;;;;;;;;;4982442;28;21378;-72
2021/11/15 12:00:53;;;;;;;0.10;0.10;;;;;;;;;;4990213;28;20566;-70
2021/11/15 12:03:21;;;;;;;4.33;1.60;;;;;;;;;;4997699;28;20228;-69
2021/11/15 12:05:49;;;;;;;2.77;2.57;;;;;;;;;;4999699;28;20198;-69
2021/11/15 12:08:17;;;;;;;0.20;0.20;;;;;;;;;;4998009;28;20240;-68
2021/11/15 12:10:49;;;;;;;0.00;0.00;;;;;;;;;;4990301;28;20237;-71
2021/11/15 12:13:19;;;;;;;1.43;1.33;;;;;;;;;;4992444;28;20201;-67
2021/11/15 12:15:56;;;;;;;0.17;0.17;;;;;;;;;;4989927;28;20268;-69
2021/11/15 12:18:25;;;;;;;0.57;0.57;;;;;;;;;;4993118;28;20219;-74
2021/11/15 12:21:12;;;;;;;0.00;0.00;;;;;;;;;;4993550;28;20201;-69
2021/11/15 12:23:40;;;;;;;0.80;0.80;;;;;;;;;;4992359;28;20273;-70
2021/11/15 12:26:08;;;;;;;0.57;0.30;;;;;;;;;;4989548;28;20221;-67
2021/11/15 12:28:37;;;;;;;1.33;1.00;;;;;;;;;;4989721;28;20205;-67
2021/11/15 12:31:07;;;;;;;0.00;0.00;;;;;;;;;;4986063;28;20774;-72
2021/11/15 12:33:35;;;;;;;1.23;1.23;;;;;;;;;;4985487;28;20292;-72
2021/11/15 12:36:04;;;;;;;0.33;0.33;;;;;;;;;;4981005;28;20224;-73
2021/11/15 12:38:36;;;;;;;2.37;0.50;;;;;;;;;;4985468;28;20236;-71
2021/11/15 12:41:05;;;;;;;0.00;0.00;;;;;;;;;;4983400;28;20205;-72
2021/11/15 12:43:33;;;;;;;0.73;0.73;;;;;;;;;;4981321;28;20229;-72
2021/11/15 12:46:13;;;;;;;3.57;2.57;;;;;;;;;;4992729;28;21108;-72
2021/11/15 12:48:42;;;;;;;0.90;0.90;;;;;;;;;;4991533;28;20213;-73
2021/11/15 12:51:15;;;;;;;0.50;0.50;;;;;;;;;;4987567;28;20246;-73
2021/11/15 12:53:44;;;;;;;1.30;0.73;;;;;;;;;;4987750;28;20638;-72
2021/11/15 12:56:13;;;;;;;0.23;0.23;;;;;;;;;;4983493;28;20273;-68
2021/11/15 12:58:43;;;;;;;3.00;2.63;;;;;;;;;;4996671;28;20201;-75
2021/11/15 13:01:12;;;;;;;4.50;1.60;;;;;;;;;;4997966;28;20265;-75
2021/11/15 13:03:40;;;;;;;0.47;0.47;;;;;;;;;;4991925;28;20273;-78
2021/11/15 13:06:08;;;;;;;0.10;0.10;;;;;;;;;;4997706;28;20205;-71
2021/11/15 13:08:36;;;;;;;0.80;0.80;;;;;;;;;;4995654;28;20208;-72
2021/11/15 13:11:04;;;;;;;0.93;0.93;;;;;;;;;;4995792;28;20226;-71
2021/11/15 13:13:31;;;;;;;1.97;1.83;;;;;;;;;;4998973;28;20193;-75
2021/11/15 13:15:59;;;;;;;0.63;0.63;;;;;;;;;;4995389;28;20582;-75
2021/11/15 13:18:28;;;;;;;1.23;1.20;;;;;;;;;;4988790;28;20208;-71
2021/11/15 13:20:55;;;;;;;1.43;1.33;;;;;;;;;;4991640;28;20206;-72
2021/11/15 13:23:24;;;;;;;0.77;0.77;;;;;;;;;;5004397;28;20206;-78
2021/11/15 13:25:51;;;;;;;0.37;0.37;;;;;;;;;;4991014;28;20210;-74
2021/11/15 13:28:19;;;;;;;2.77;1.97;;;;;;;;;;4984071;28;20202;-68
2021/11/15 13:30:46;;;;;;;1.43;1.20;;;;;;;;;;4986071;28;20236;-75
2021/11/15 13:33:14;;;;;;;2.13;1.93;;;;;;;;;;4990402;28;20212;-72
2021/11/15 13:35:42;;;;;;;0.00;0.00;;;;;;;;;;4988647;28;20248;-70
2021/11/15 13:38:10;;;;;;;0.00;0.00;;;;;;;;;;4991318;28;20217;-68
2021/11/15 13:40:41;;;;;;;2.17;1.97;;;;;;;;;;4995101;28;20750;-69
2021/11/15 13:43:09;;;;;;;0.83;0.83;;;;;;;;;;4990689;28;20245;-73
2021/11/15 13:45:37;;;;;;;0.40;0.37;;;;;;;;;;4994437;28;20257;-77
2021/11/15 13:48:05;;;;;;;0.20;0.20;;;;;;;;;;4999150;28;20202;-74
2021/11/15 13:50:32;;;;;;;0.00;0.00;;;;;;;;;;4998027;28;20229;-71
2021/11/15 13:53:01;;;;;;;0.33;0.33;;;;;;;;;;5000838;28;20206;-81
2021/11/15 13:55:29;;;;;;;1.00;1.00;;;;;;;;;;4997917;28;20261;-83
2021/11/15 13:57:56;;;;;;;0.10;0.10;;;;;;;;;;4983907;28;20216;-70
2021/11/15 14:00:24;;;;;;;2.60;1.07;;;;;;;;;;4987485;28;20730;-71
2021/11/15 14:02:52;;;;;;;0.03;0.03;;;;;;;;;;4991071;28;20222;-70
2021/11/15 14:05:21;;;;;;;0.73;0.73;;;;;;;;;;4994714;28;20625;-69
2021/11/15 14:07:48;;;;;;;0.03;0.03;;;;;;;;;;4996953;28;20210;-69
2021/11/15 14:10:17;;;;;;;0.00;0.00;;;;;;;;;;4996346;28;20242;-69
2021/11/15 14:12:45;;;;;;;0.00;0.00;;;;;;;;;;4997116;28;20229;-69
2021/11/15 14:15:13;;;;;;;0.00;0.00;;;;;;;;;;4992822;28;20681;-69
2021/11/15 14:17:41;;;;;;;0.20;0.20;;;;;;;;;;4996906;28;20675;-71
2021/11/15 14:20:10;;;;;;;0.40;0.40;;;;;;;;;;4996695;28;20217;-69
2021/11/15 14:22:38;;;;;;;0.00;0.00;;;;;;;;;;4992901;28;20273;-69
2021/11/15 14:25:09;;;;;;;1.80;1.70;;;;;;;;;;4994977;28;20752;-68
2021/11/15 14:27:38;;;;;;;0.00;0.00;;;;;;;;;;4995753;28;20265;-69
2021/11/15 14:30:06;;;;;;;0.00;0.00;;;;;;;;;;4988413;28;21040;-70
2021/11/15 14:32:34;;;;;;;1.10;1.10;;;;;;;;;;4995532;28;20206;-72
2021/11/15 14:35:02;;;;;;;0.20;0.20;;;;;;;;;;5000819;28;20198;-69
2021/11/15 14:37:29;;;;;;;0.30;0.30;;;;;;;;;;4998978;28;20216;-70
2021/11/15 14:39:57;;;;;;;1.07;0.60;;;;;;;;;;4999860;28;20297;-68
2021/11/15 14:42:24;;;;;;;0.00;0.00;;;;;;;;;;4998139;28;20304;-69
2021/11/15 14:44:53;;;;;;;0.00;0.00;;;;;;;;;;4998162;28;20610;-71
2021/11/15 14:47:23;;;;;;;1.00;0.97;;;;;;;;;;4995534;28;20198;-72
2021/11/15 14:49:52;;;;;;;0.00;0.00;;;;;;;;;;4989784;28;20317;-72
2021/11/15 14:52:20;;;;;;;0.40;0.40;;;;;;;;;;4986629;28;20217;-71